Kanaranzi, MN (56146)

1:25 PM CDT on April 24, 2018 (GMT -0500)
Luverne | | Change Station
Active Advisory: Flood Warning

Elev 1430 ft 43.62 °N, 96.22 °W | Updated 10 minutes ago

Mostly Cloudy
Mostly Cloudy
46 °F
Feels Like 40 °F
N
17
Wind Variable Wind from NNE
Gusts 30 mph

Today
High -- | Low -- °F
--% Chance of Precip.
Yesterday
High -- | Low -- °F
Precip. -- in
Pressure 30.21 in
Visibility 10.0 miles
Clouds Mostly Cloudy 6000 ft
Mostly Cloudy 7000 ft
Mostly Cloudy 8500 ft
Windchill 40 °F
Dew Point 37 °F
Humidity 71%
Rainfall 0.00 in
Snow Depth Not available.
6:27 AM 8:18 PM
Waxing Gibbous, 71% visible
METAR KLYV 241815Z AUTO 03015G26KT 10SM -DZ BKN060 BKN070 BKN085 08/03 A3021 RMK AO2
Pressure 30.21 in
Visibility 10.0 miles
Clouds Mostly Cloudy 6000 ft
Mostly Cloudy 7000 ft
Mostly Cloudy 8500 ft
Windchill 40 °F
Dew Point 37 °F
Humidity 71%
Rainfall 0.00 in
Snow Depth Not available.
6:27 AM 8:18 PM
Waxing Gibbous, 71% visible
METAR KLYV 241815Z AUTO 03015G26KT 10SM -DZ BKN060 BKN070 BKN085 08/03 A3021 RMK AO2

Get Your Daily Forecast Email!

Thanks for signing up!

Be on the lookout for a verification email in your inbox.

You'll start receiving severe weather alerts in your inbox..

×

10-Day Weather Forecast

Almanac

Astronomy

Apr. 24, 2018 Rise Set
Actual Time
Civil Twilight
Nautical Twilight
Astronomical Twilight
Moon
Length of Visible Light
Length of Day
Tomorrow will be .
, % of the Moon is Illuminated

Today's Extremes

State Highs State Lows

Community

WunderPhotos

Category 6

Welcome to Category 6. This is the collective home for Weather Underground's featured writeups by Dr. Jeff Masters (right), Bob Henson (left), Chris Burt, and other regular contributors.

Nearby

Air Quality

  Air Quality AQ Index Pollutant
Not available.

Snow Depth

Station Depth Elevation

Earthquake Activity

City Distance Mag. Time & Date
Minimum magnitude displayed is 2.5.

Coastal Water Temperatures

Place Temperature

Stations

Nearby Weather Stations

Station Location Temp. Windchill Dew Point Humidity Wind Precip. Elev Updated Type
                   

Watches & Warnings

Flood Warning
Issued: 10:25 AM CDT Apr. 24, 2018 – National Weather Service

The Flood Warning continues for
the Rock River near Hardwick.
* Until further notice.
* At 09am Tuesday the stage was 14.03 feet.
* Flood stage is 14.00 feet.
* At stages near 14.0 feet... the lower left bank overflows flooding
low lying agricultural lands.


Lat... Lon 4391 9620 4391 9610 4383 9611 4370 9611
          4371 9622 4380 9616




1025 am CDT Tue Apr 24 2018

The Flood Warning continues for
the Split Rock creek below Jasper.
* Until further notice.
* At 09am Tuesday the stage was 91.80 feet.
* Flood stage is 91.00 feet.
* At stages near 91.0 feet... the lower banks on this stretch of the
creek are overtopped. The low water crossing on 250th street at the
MN/SD state line is flooded.


Lat... Lon 4390 9639 4384 9637 4377 9642 4372 9648
          4372 9654 4381 9649